Time;durP1;ratioP1;P1;durP2;ratioP2;P2;SDS_P1;SDS_P2;PMS_P1;PMS_P2;Temp;Humidity;BMP_temperature;BMP_pressure;BME280_temperature;BME280_humidity;BME280_pressure;Samples;Min_cycle;Max_cycle;Signal;HPM_P1;HPM_P2
2021/07/04 00:00:56;;;;;;;8.40;7.60;;;22.40;84.50;;;;;;5093943;28;20435;-65
2021/07/04 00:03:23;;;;;;;7.90;7.03;;;22.30;84.30;;;;;;5093867;28;20443;-65
2021/07/04 00:05:51;;;;;;;9.00;8.30;;;22.30;84.30;;;;;;5093821;28;20455;-65
2021/07/04 00:08:21;;;;;;;8.37;7.40;;;22.30;84.30;;;;;;5093400;28;20562;-65
2021/07/04 00:10:50;;;;;;;9.17;7.70;;;22.40;84.40;;;;;;5094263;28;20538;-65
2021/07/04 00:13:17;;;;;;;7.97;7.27;;;22.30;84.40;;;;;;5093728;28;20440;-65
2021/07/04 00:15:46;;;;;;;10.63;7.83;;;22.30;84.40;;;;;;5093663;28;20455;-65
2021/07/04 00:18:15;;;;;;;9.20;8.30;;;22.30;84.50;;;;;;5093563;28;20466;-65
2021/07/04 00:20:43;;;;;;;9.57;8.67;;;22.30;84.60;;;;;;5093608;28;20439;-65
2021/07/04 00:23:10;;;;;;;9.10;8.20;;;22.30;84.70;;;;;;5093567;28;20455;-65
2021/07/04 00:25:38;;;;;;;9.63;8.80;;;22.30;84.80;;;;;;5093557;28;20444;-65
2021/07/04 00:28:06;;;;;;;8.70;7.90;;;22.30;84.90;;;;;;5093181;28;20464;-65
2021/07/04 00:30:33;;;;;;;9.53;8.63;;;22.30;84.90;;;;;;5093114;28;21021;-65
2021/07/04 00:33:01;;;;;;;9.70;8.80;;;22.20;84.60;;;;;;5093474;28;20450;-65
2021/07/04 00:35:28;;;;;;;9.27;8.57;;;22.20;84.50;;;;;;5093482;28;20440;-65
2021/07/04 00:37:55;;;;;;;10.30;9.23;;;22.20;84.50;;;;;;5093374;28;20464;-65
2021/07/04 00:40:23;;;;;;;12.73;8.27;;;22.20;84.70;;;;;;5095716;28;20444;-65
2021/07/04 00:42:50;;;;;;;9.50;8.60;;;22.10;84.60;;;;;;5097640;28;20448;-65
2021/07/04 00:45:19;;;;;;;10.10;8.50;;;22.10;84.70;;;;;;5097556;28;20479;-65
2021/07/04 00:47:47;;;;;;;14.50;9.17;;;22.00;84.70;;;;;;5097124;28;20996;-65
2021/07/04 00:50:18;;;;;;;14.37;8.37;;;22.00;85.00;;;;;;5097384;28;20463;-65
2021/07/04 00:52:45;;;;;;;14.43;9.67;;;21.80;85.90;;;;;;5097494;28;20823;-65
2021/07/04 00:55:14;;;;;;;9.70;8.47;;;21.70;85.80;;;;;;5097357;28;20443;-65
2021/07/04 00:57:41;;;;;;;13.17;7.80;;;21.70;86.40;;;;;;5097255;28;20464;-65
2021/07/04 01:00:11;;;;;;;16.17;9.50;;;21.70;86.60;;;;;;5097277;28;20447;-65
2021/07/04 01:02:38;;;;;;;12.30;9.83;;;21.70;86.60;;;;;;5096949;28;20960;-65
2021/07/04 01:05:08;;;;;;;11.43;8.53;;;21.70;86.60;;;;;;5097170;28;20448;-65
2021/07/04 01:07:36;;;;;;;18.73;9.23;;;21.60;86.30;;;;;;5096632;28;20562;-65
2021/07/04 01:10:04;;;;;;;16.33;9.83;;;21.50;86.20;;;;;;5097042;28;20480;-65
2021/07/04 01:12:31;;;;;;;14.73;9.73;;;21.40;86.60;;;;;;5097039;28;20470;-65
2021/07/04 01:14:57;;;;;;;13.60;9.70;;;21.40;86.90;;;;;;5096704;28;20839;-65
2021/07/04 01:17:24;;;;;;;14.07;9.47;;;21.40;86.80;;;;;;5096519;28;21015;-65
2021/07/04 01:19:51;;;;;;;11.63;10.00;;;21.40;86.70;;;;;;5096776;28;20534;-66
2021/07/04 01:22:20;;;;;;;9.57;8.60;;;21.40;86.70;;;;;;5096863;28;20444;-65
2021/07/04 01:24:48;;;;;;;9.90;9.00;;;21.40;86.70;;;;;;5097363;28;20440;-65
2021/07/04 01:27:15;;;;;;;11.53;9.40;;;21.50;86.70;;;;;;5096680;28;20467;-65
2021/07/04 01:29:42;;;;;;;9.67;8.67;;;21.50;86.80;;;;;;5096716;28;20443;-65
2021/07/04 01:32:08;;;;;;;11.27;10.07;;;21.50;86.50;;;;;;5096586;28;20574;-65
2021/07/04 01:34:35;;;;;;;14.13;9.80;;;21.50;86.40;;;;;;5096628;28;20810;-66
2021/07/04 01:37:02;;;;;;;11.60;9.80;;;21.40;86.20;;;;;;5096300;28;20474;-65
2021/07/04 01:39:29;;;;;;;10.37;8.67;;;21.30;85.90;;;;;;5096572;28;20439;-65
2021/07/04 01:41:57;;;;;;;22.53;11.33;;;21.30;86.20;;;;;;5096553;28;20443;-65
2021/07/04 01:44:24;;;;;;;14.20;9.90;;;21.30;86.10;;;;;;5096437;28;20455;-65
2021/07/04 01:46:51;;;;;;;11.17;10.07;;;21.30;86.10;;;;;;5096359;28;20447;-66
2021/07/04 01:49:18;;;;;;;14.30;8.70;;;21.30;86.10;;;;;;5096402;28;20455;-66
2021/07/04 01:51:45;;;;;;;11.27;9.20;;;21.30;86.10;;;;;;5095196;28;20463;-65
2021/07/04 01:54:13;;;;;;;16.20;9.03;;;21.20;85.90;;;;;;5095964;28;20436;-66
2021/07/04 01:56:39;;;;;;;15.90;9.80;;;21.20;85.80;;;;;;5096167;28;20451;-66
2021/07/04 01:59:07;;;;;;;17.03;10.00;;;21.20;85.90;;;;;;5095827;28;20450;-66
2021/07/04 02:01:34;;;;;;;18.40;9.27;;;21.20;86.00;;;;;;5095781;28;20937;-66
2021/07/04 02:04:01;;;;;;;15.37;10.30;;;21.10;86.20;;;;;;5095738;28;20475;-66
2021/07/04 02:06:28;;;;;;;13.00;10.83;;;21.10;86.60;;;;;;5096015;28;20455;-66
2021/07/04 02:08:54;;;;;;;11.83;10.67;;;21.10;87.10;;;;;;5095538;28;20545;-66
2021/07/04 02:11:21;;;;;;;14.40;10.70;;;21.10;87.40;;;;;;5095441;28;20479;-66
2021/07/04 02:13:48;;;;;;;14.53;10.80;;;21.10;87.30;;;;;;5095828;28;20447;-66
2021/07/04 02:16:16;;;;;;;11.10;9.80;;;21.20;87.50;;;;;;5095837;28;20451;-66
2021/07/04 02:18:45;;;;;;;15.93;11.20;;;21.20;87.30;;;;;;5095777;28;20475;-66
2021/07/04 02:21:12;;;;;;;15.60;10.53;;;21.20;87.30;;;;;;5095745;28;20448;-66
2021/07/04 02:23:38;;;;;;;17.37;10.43;;;21.20;87.50;;;;;;5095773;28;20436;-66
2021/07/04 02:26:05;;;;;;;9.97;8.83;;;21.20;87.50;;;;;;5095644;28;20455;-66
2021/07/04 02:28:32;;;;;;;11.20;9.83;;;21.20;87.60;;;;;;5095234;28;21004;-66
2021/07/04 02:30:59;;;;;;;14.90;10.27;;;21.30;87.90;;;;;;5095501;28;20476;-66
2021/07/04 02:33:27;;;;;;;11.73;10.23;;;21.30;87.80;;;;;;5095469;28;20452;-66
2021/07/04 02:35:57;;;;;;;12.37;11.33;;;21.30;88.00;;;;;;5095451;28;20470;-66
2021/07/04 02:38:25;;;;;;;11.27;10.00;;;21.30;88.00;;;;;;5095639;28;20470;-66
2021/07/04 02:40:53;;;;;;;11.50;10.30;;;21.30;88.20;;;;;;5095039;28;20952;-66
2021/07/04 02:43:22;;;;;;;10.77;9.73;;;21.30;88.20;;;;;;5095363;28;20455;-66
2021/07/04 02:45:49;;;;;;;12.33;10.13;;;21.30;88.40;;;;;;5094978;28;20450;-66
2021/07/04 02:48:16;;;;;;;12.40;10.83;;;21.30;88.50;;;;;;5094873;28;20475;-66
2021/07/04 02:50:45;;;;;;;11.40;10.20;;;21.30;88.50;;;;;;5094805;28;20479;-66
2021/07/04 02:53:12;;;;;;;12.27;9.47;;;21.30;88.40;;;;;;5095143;28;20444;-66
2021/07/04 02:55:39;;;;;;;10.27;9.33;;;21.30;88.50;;;;;;5095093;28;20456;-66
2021/07/04 02:58:06;;;;;;;10.47;9.47;;;21.30;88.60;;;;;;5094982;28;20475;-66
2021/07/04 03:00:33;;;;;;;10.10;9.20;;;21.30;88.60;;;;;;5094932;28;20454;-66
2021/07/04 03:03:00;;;;;;;10.97;10.00;;;21.30;89.40;;;;;;5093878;28;20452;-66
2021/07/04 03:05:27;;;;;;;12.20;10.80;;;21.30;88.70;;;;;;5094832;28;20817;-66
2021/07/04 03:07:55;;;;;;;11.50;10.40;;;21.30;89.00;;;;;;5094297;28;20487;-66
2021/07/04 03:10:23;;;;;;;10.77;9.80;;;21.20;89.10;;;;;;5094795;28;20443;-66
2021/07/04 03:12:50;;;;;;;14.03;9.17;;;21.20;89.30;;;;;;5094708;28;20467;-66
2021/07/04 03:15:18;;;;;;;13.73;8.87;;;21.20;89.40;;;;;;5094714;28;20439;-66
2021/07/04 03:17:45;;;;;;;13.63;9.10;;;21.20;89.10;;;;;;5094580;28;20464;-66
2021/07/04 03:20:14;;;;;;;15.77;10.47;;;21.20;89.10;;;;;;5094565;28;20440;-66
2021/07/04 03:22:41;;;;;;;14.57;10.30;;;21.10;89.20;;;;;;5094600;28;20440;-66
2021/07/04 03:25:11;;;;;;;14.57;9.80;;;21.10;89.20;;;;;;5094216;28;20443;-66
2021/07/04 03:27:39;;;;;;;14.10;9.80;;;21.10;89.40;;;;;;5095021;28;20463;-66
2021/07/04 03:30:09;;;;;;;18.43;10.00;;;21.10;89.70;;;;;;5094436;28;20440;-66
2021/07/04 03:32:36;;;;;;;19.03;10.90;;;21.00;89.60;;;;;;5094377;28;20839;-66
2021/07/04 03:35:02;;;;;;;18.13;11.40;;;21.00;89.80;;;;;;5094058;28;20967;-66
2021/07/04 03:37:29;;;;;;;14.13;11.50;;;21.00;89.80;;;;;;5093916;28;20999;-66
2021/07/04 03:39:56;;;;;;;25.10;10.90;;;21.00;89.90;;;;;;5094256;28;20450;-66
2021/07/04 03:42:24;;;;;;;14.13;10.63;;;21.00;90.00;;;;;;5094154;28;20451;-66
2021/07/04 03:44:51;;;;;;;14.07;10.40;;;21.00;90.00;;;;;;5094139;28;20471;-66
2021/07/04 03:47:19;;;;;;;13.73;9.97;;;21.00;89.80;;;;;;5094070;28;20471;-66
2021/07/04 03:49:45;;;;;;;11.13;9.87;;;21.00;89.70;;;;;;5094098;28;20452;-67
2021/07/04 03:52:12;;;;;;;15.27;10.67;;;21.00;89.60;;;;;;5094053;28;20505;-66
2021/07/04 03:54:39;;;;;;;19.67;11.63;;;21.10;89.50;;;;;;5093989;28;20459;-67
2021/07/04 03:57:21;;;;;;;16.07;11.17;;;21.00;89.50;;;;;;5093910;28;20470;-66
2021/07/04 03:59:50;;;;;;;19.60;15.33;;;21.10;89.70;;;;;;5094005;28;20436;-66
2021/07/04 04:02:17;;;;;;;24.60;16.20;;;21.10;89.60;;;;;;5093619;28;20901;-66
2021/07/04 04:04:43;;;;;;;18.40;14.67;;;21.10;89.60;;;;;;5093885;28;20443;-66
2021/07/04 04:07:10;;;;;;;14.90;13.37;;;21.10;89.50;;;;;;5093564;28;20487;-66
2021/07/04 04:09:37;;;;;;;21.63;14.83;;;21.10;89.80;;;;;;5093785;28;20444;-66
2021/07/04 04:12:05;;;;;;;27.40;15.83;;;21.20;89.90;;;;;;5093370;28;20483;-66
2021/07/04 04:14:32;;;;;;;23.33;18.33;;;21.20;89.60;;;;;;5093397;28;20447;-66
2021/07/04 04:17:00;;;;;;;24.83;17.43;;;21.20;89.40;;;;;;5093603;28;20463;-66
2021/07/04 04:19:27;;;;;;;21.13;16.60;;;21.20;89.40;;;;;;5093394;28;20945;-66
2021/07/04 04:21:53;;;;;;;27.90;17.33;;;21.20;89.50;;;;;;5093683;28;20465;-66
2021/07/04 04:24:20;;;;;;;23.40;17.10;;;21.20;89.70;;;;;;5093562;28;20448;-65
2021/07/04 04:26:47;;;;;;;17.70;15.80;;;21.20;89.70;;;;;;5093515;28;20436;-65
2021/07/04 04:29:14;;;;;;;22.40;17.00;;;21.30;90.00;;;;;;5093663;28;20475;-65
2021/07/04 04:31:41;;;;;;;22.97;16.47;;;21.30;89.70;;;;;;5093463;28;20479;-65
2021/07/04 04:34:09;;;;;;;21.43;16.90;;;21.30;89.60;;;;;;5093480;28;20448;-65
2021/07/04 04:36:35;;;;;;;21.73;17.23;;;21.30;89.40;;;;;;5093512;28;20444;-65
2021/07/04 04:39:03;;;;;;;18.77;16.77;;;21.30;89.50;;;;;;5093468;28;20443;-65
2021/07/04 04:41:33;;;;;;;21.03;15.90;;;21.30;89.40;;;;;;5093213;28;20436;-65
2021/07/04 04:43:59;;;;;;;19.30;16.20;;;21.30;89.50;;;;;;5093459;28;20481;-65
2021/07/04 04:46:26;;;;;;;20.67;15.80;;;21.20;89.20;;;;;;5093404;28;20448;-65
2021/07/04 04:48:53;;;;;;;19.40;16.60;;;21.30;89.30;;;;;;5092978;28;20468;-65
2021/07/04 04:51:21;;;;;;;21.27;16.27;;;21.20;89.20;;;;;;5093273;28;20471;-65
2021/07/04 04:53:48;;;;;;;17.70;15.57;;;21.20;89.20;;;;;;5093363;28;20451;-65
2021/07/04 04:56:14;;;;;;;18.80;16.70;;;21.20;89.20;;;;;;5093314;28;20451;-65
2021/07/04 04:58:41;;;;;;;16.83;15.07;;;21.20;89.30;;;;;;5092874;28;20839;-65
2021/07/04 05:01:08;;;;;;;19.50;16.03;;;21.20;89.50;;;;;;5093234;28;20447;-65
2021/07/04 05:03:34;;;;;;;21.17;19.10;;;21.20;89.80;;;;;;5094077;28;20446;-65
2021/07/04 05:06:01;;;;;;;19.43;17.27;;;21.20;90.00;;;;;;5093199;28;20450;-65
2021/07/04 05:08:30;;;;;;;20.70;18.70;;;21.20;90.00;;;;;;5092754;28;20475;-65
2021/07/04 05:10:57;;;;;;;20.63;18.30;;;21.10;90.10;;;;;;5093229;28;20544;-65
2021/07/04 05:13:24;;;;;;;20.20;18.10;;;21.10;90.20;;;;;;5093052;28;20570;-65
2021/07/04 05:15:51;;;;;;;20.07;17.97;;;21.10;90.30;;;;;;5093119;28;20451;-65
2021/07/04 05:18:17;;;;;;;19.40;17.50;;;21.10;90.40;;;;;;5093081;28;20506;-65
2021/07/04 05:20:44;;;;;;;21.03;17.13;;;21.10;90.50;;;;;;5093047;28;20451;-65
2021/07/04 05:23:11;;;;;;;20.93;18.63;;;21.10;90.50;;;;;;5093074;28;20443;-65
2021/07/04 05:25:39;;;;;;;20.80;16.77;;;21.10;90.60;;;;;;5093045;28;20443;-65
2021/07/04 05:28:06;;;;;;;18.73;16.93;;;21.10;90.60;;;;;;5096095;28;20472;-65
2021/07/04 05:30:32;;;;;;;16.10;14.50;;;21.20;90.70;;;;;;5096449;28;20444;-65
2021/07/04 05:32:59;;;;;;;16.50;15.00;;;21.20;90.50;;;;;;5096340;28;20985;-65
2021/07/04 05:35:27;;;;;;;16.80;14.53;;;21.30;90.60;;;;;;5096652;28;20443;-65
2021/07/04 05:37:54;;;;;;;17.27;15.33;;;21.40;90.50;;;;;;5096528;28;20464;-65
2021/07/04 05:40:20;;;;;;;16.60;14.67;;;21.40;90.40;;;;;;5096228;28;20439;-65
2021/07/04 05:42:48;;;;;;;18.53;13.60;;;21.50;90.20;;;;;;5096224;28;20444;-65
2021/07/04 05:45:20;;;;;;;13.77;11.47;;;21.70;90.00;;;;;;5096469;28;20432;-65
2021/07/04 05:47:46;;;;;;;15.67;14.00;;;21.80;89.90;;;;;;5096098;28;20843;-65
2021/07/04 05:50:13;;;;;;;13.83;12.43;;;21.90;88.50;;;;;;5096359;28;20448;-65
2021/07/04 05:52:40;;;;;;;17.20;13.93;;;22.00;88.50;;;;;;5096235;28;20480;-65
2021/07/04 05:55:08;;;;;;;13.90;12.50;;;22.10;88.40;;;;;;5096271;28;20443;-65
2021/07/04 05:57:35;;;;;;;20.23;12.23;;;22.20;88.20;;;;;;5095862;28;20973;-65
2021/07/04 06:00:05;;;;;;;15.23;12.40;;;22.20;87.60;;;;;;5096199;28;20470;-65
2021/07/04 06:02:32;;;;;;;13.40;10.60;;;22.20;87.70;;;;;;5096728;28;20417;-65
2021/07/04 06:04:59;;;;;;;13.17;11.10;;;22.30;87.30;;;;;;5096050;28;20443;-65
2021/07/04 06:07:25;;;;;;;16.87;11.30;;;22.40;87.40;;;;;;5095849;28;20549;-66
2021/07/04 06:09:52;;;;;;;14.63;12.23;;;22.40;86.70;;;;;;5095969;28;20459;-66
2021/07/04 06:12:19;;;;;;;13.77;12.20;;;22.40;86.10;;;;;;5095870;28;20486;-65
2021/07/04 06:14:45;;;;;;;12.63;11.30;;;22.30;86.40;;;;;;5095841;28;20803;-65
2021/07/04 06:17:14;;;;;;;13.80;11.90;;;22.30;87.00;;;;;;5096256;28;20464;-65
2021/07/04 06:19:40;;;;;;;12.20;10.90;;;22.30;87.40;;;;;;5095815;28;20447;-65
2021/07/04 06:22:07;;;;;;;11.60;10.47;;;22.40;87.70;;;;;;5095995;28;20770;-65
2021/07/04 06:24:34;;;;;;;15.80;13.37;;;22.50;87.90;;;;;;5095717;28;20444;-65
2021/07/04 06:27:00;;;;;;;12.30;11.07;;;22.60;87.10;;;;;;5095612;28;20867;-65
2021/07/04 06:29:27;;;;;;;14.23;11.37;;;22.60;85.70;;;;;;5095336;28;20444;-65
2021/07/04 06:31:54;;;;;;;11.53;10.33;;;22.60;85.20;;;;;;5095161;28;20479;-65
2021/07/04 06:34:22;;;;;;;11.37;10.27;;;22.60;85.10;;;;;;5095546;28;20456;-65
2021/07/04 06:36:48;;;;;;;13.03;10.60;;;22.70;86.50;;;;;;5095405;28;20440;-65
2021/07/04 06:39:15;;;;;;;14.87;11.50;;;22.80;86.20;;;;;;5095109;28;20454;-65
2021/07/04 06:41:42;;;;;;;15.00;11.10;;;22.80;85.60;;;;;;5095122;28;20427;-65
2021/07/04 06:44:09;;;;;;;13.13;10.70;;;22.80;85.50;;;;;;5095305;28;20440;-65
2021/07/04 06:46:35;;;;;;;14.27;12.17;;;22.80;85.40;;;;;;5095290;28;20518;-65
2021/07/04 06:49:02;;;;;;;12.43;11.20;;;22.70;84.80;;;;;;5095160;28;20467;-65
2021/07/04 06:51:30;;;;;;;15.53;11.60;;;22.70;85.70;;;;;;5095175;28;20443;-65
2021/07/04 06:53:57;;;;;;;16.50;12.30;;;22.70;85.80;;;;;;5095042;28;20474;-65
2021/07/04 06:56:24;;;;;;;13.27;11.50;;;22.60;85.80;;;;;;5095031;28;20456;-65
2021/07/04 06:58:51;;;;;;;13.13;11.90;;;22.60;86.00;;;;;;5094954;28;20490;-65
2021/07/04 07:01:18;;;;;;;13.30;12.10;;;22.50;85.40;;;;;;5095001;28;20452;-65
2021/07/04 07:03:45;;;;;;;14.63;12.50;;;22.50;86.10;;;;;;5094945;28;20466;-65
2021/07/04 07:06:11;;;;;;;13.97;12.50;;;22.40;86.50;;;;;;5094831;28;20448;-65
2021/07/04 07:08:39;;;;;;;13.30;12.00;;;22.40;87.10;;;;;;5094439;28;20482;-65
2021/07/04 07:11:06;;;;;;;14.00;12.40;;;22.50;87.70;;;;;;5094824;28;20424;-65
2021/07/04 07:13:33;;;;;;;13.67;12.20;;;22.50;87.10;;;;;;5094673;28;20486;-66
2021/07/04 07:15:59;;;;;;;13.67;12.27;;;22.60;86.80;;;;;;5094693;28;20450;-66
2021/07/04 07:18:26;;;;;;;11.60;10.43;;;22.80;86.80;;;;;;5094663;28;20464;-66
2021/07/04 07:20:53;;;;;;;14.40;11.87;;;23.10;85.40;;;;;;5094658;28;20431;-66
2021/07/04 07:23:20;;;;;;;12.13;8.67;;;23.40;84.70;;;;;;5094611;28;20435;-68
2021/07/04 07:25:48;;;;;;;14.23;12.73;;;23.70;83.50;;;;;;5094277;28;20436;-68
2021/07/04 07:28:14;;;;;;;12.60;11.30;;;24.00;82.20;;;;;;5094467;28;20493;-68
2021/07/04 07:30:41;;;;;;;13.03;10.00;;;24.30;80.60;;;;;;5094431;28;20796;-68
2021/07/04 07:33:08;;;;;;;11.47;10.43;;;24.50;79.10;;;;;;5094314;28;20483;-68
2021/07/04 07:35:35;;;;;;;9.90;7.97;;;24.80;78.20;;;;;;5094391;28;20440;-68
2021/07/04 07:38:03;;;;;;;9.77;8.87;;;25.10;76.50;;;;;;5094229;28;20468;-68
2021/07/04 07:40:30;;;;;;;9.40;8.60;;;25.30;75.20;;;;;;5094254;28;20480;-68
2021/07/04 07:42:59;;;;;;;9.33;8.13;;;25.50;74.10;;;;;;5094235;28;20432;-68
2021/07/04 07:45:25;;;;;;;8.47;7.60;;;25.50;70.90;;;;;;5094181;28;20451;-68
2021/07/04 07:47:52;;;;;;;7.80;6.57;;;25.60;71.50;;;;;;5094057;28;20468;-69
2021/07/04 07:50:19;;;;;;;5.67;5.17;;;25.50;70.20;;;;;;5093528;28;20440;-68
2021/07/04 07:52:45;;;;;;;7.23;6.63;;;25.50;70.50;;;;;;5093658;28;20926;-68
2021/07/04 07:55:13;;;;;;;7.33;6.63;;;25.50;69.50;;;;;;5094025;28;20455;-68
2021/07/04 07:57:40;;;;;;;7.93;7.20;;;25.50;68.30;;;;;;5093887;28;20475;-68
2021/07/04 08:00:11;;;;;;;9.03;8.23;;;25.50;68.60;;;;;;5093955;28;20446;-68
2021/07/04 08:02:38;;;;;;;7.00;6.30;;;25.40;68.70;;;;;;5093946;28;20454;-69
2021/07/04 08:05:05;;;;;;;7.53;6.90;;;25.30;69.00;;;;;;5093509;28;20964;-68
2021/07/04 08:07:32;;;;;;;6.60;6.00;;;25.20;69.80;;;;;;5093525;28;20475;-69
2021/07/04 08:09:59;;;;;;;5.40;4.83;;;25.30;69.80;;;;;;5093817;28;20459;-69
2021/07/04 08:12:26;;;;;;;7.37;6.67;;;25.40;69.40;;;;;;5093673;28;20484;-69
2021/07/04 08:14:53;;;;;;;8.17;5.27;;;25.50;68.80;;;;;;5093850;28;20440;-68
2021/07/04 08:17:21;;;;;;;6.23;5.77;;;25.60;68.70;;;;;;5093662;28;20475;-68
2021/07/04 08:19:48;;;;;;;4.73;4.33;;;25.70;69.10;;;;;;5093351;28;20917;-68
2021/07/04 08:22:14;;;;;;;4.13;3.83;;;25.90;69.30;;;;;;5093592;28;20428;-68
2021/07/04 08:24:41;;;;;;;5.33;4.83;;;26.20;69.50;;;;;;5093605;28;20423;-69
2021/07/04 08:27:08;;;;;;;5.70;5.13;;;26.60;68.30;;;;;;5093519;28;20479;-68
2021/07/04 08:29:35;;;;;;;4.77;4.30;;;26.90;65.70;;;;;;5093602;28;20424;-68
2021/07/04 08:32:01;;;;;;;5.47;4.93;;;27.10;62.60;;;;;;5093554;28;20448;-68
2021/07/04 08:34:29;;;;;;;4.43;4.10;;;27.30;61.80;;;;;;5093462;28;20471;-69
2021/07/04 08:36:56;;;;;;;5.30;4.77;;;27.60;62.00;;;;;;5093505;28;20439;-69
2021/07/04 08:39:23;;;;;;;4.57;4.27;;;27.80;59.30;;;;;;5093655;28;20424;-69
2021/07/04 08:41:49;;;;;;;4.03;3.67;;;28.00;59.50;;;;;;5093485;28;20439;-69
2021/07/04 08:44:16;;;;;;;4.00;3.70;;;28.20;59.30;;;;;;5093106;28;20446;-69
2021/07/04 08:46:45;;;;;;;4.30;3.90;;;28.60;58.70;;;;;;5093294;28;20448;-69
2021/07/04 08:49:13;;;;;;;4.73;4.40;;;28.90;58.10;;;;;;5093420;28;20451;-69
2021/07/04 08:51:42;;;;;;;4.63;4.33;;;29.20;57.40;;;;;;5093391;28;20443;-69
2021/07/04 08:54:08;;;;;;;4.93;4.53;;;29.40;57.10;;;;;;5093230;28;20846;-69
2021/07/04 08:56:35;;;;;;;5.23;4.80;;;29.70;56.00;;;;;;5093371;28;20436;-69
2021/07/04 08:59:02;;;;;;;5.30;4.80;;;29.90;52.90;;;;;;5093300;28;20468;-69
2021/07/04 09:01:30;;;;;;;5.27;4.80;;;30.00;52.50;;;;;;5095386;28;20451;-69
2021/07/04 09:04:09;;;;;;;5.90;5.40;;;30.20;52.50;;;;;;5097379;28;20435;-69
2021/07/04 09:06:40;;;;;;;5.03;4.63;;;30.40;51.60;;;;;;5097378;28;20451;-69
2021/07/04 09:09:24;;;;;;;8.23;6.10;;;30.50;51.60;;;;;;5097011;28;21021;-69
2021/07/04 09:11:59;;;;;;;6.03;5.53;;;30.60;51.60;;;;;;5097800;28;20522;-70
2021/07/04 09:14:38;;;;;;;5.90;5.30;;;30.60;52.40;;;;;;5097123;28;20463;-69
2021/07/04 09:17:09;;;;;;;7.00;5.93;;;30.50;52.00;;;;;;5096744;28;20463;-70
2021/07/04 09:19:36;;;;;;;4.90;4.60;;;30.40;50.50;;;;;;5096776;28;20428;-69
2021/07/04 09:22:05;;;;;;;5.33;4.83;;;30.30;50.90;;;;;;5096937;28;20443;-69
2021/07/04 09:24:35;;;;;;;21.70;5.23;;;30.20;51.50;;;;;;5096889;28;20621;-69
2021/07/04 09:27:02;;;;;;;6.93;4.97;;;30.10;51.60;;;;;;5096844;28;20464;-69
2021/07/04 09:29:44;;;;;;;6.73;4.87;;;30.00;52.10;;;;;;5096856;28;20454;-69
2021/07/04 09:32:14;;;;;;;6.20;4.90;;;30.00;52.70;;;;;;5096515;28;20795;-69
2021/07/04 09:34:41;;;;;;;6.03;5.40;;;29.90;52.40;;;;;;5096759;28;20463;-69
2021/07/04 09:37:08;;;;;;;6.00;5.50;;;29.90;52.80;;;;;;5096335;28;20999;-69
2021/07/04 09:39:36;;;;;;;9.67;5.63;;;29.70;52.20;;;;;;5096623;28;20439;-69
2021/07/04 09:42:09;;;;;;;4.53;4.23;;;29.40;53.40;;;;;;5096709;28;20446;-69
2021/07/04 09:44:36;;;;;;;6.40;5.80;;;29.20;54.40;;;;;;5096687;28;20427;-69
2021/07/04 09:47:27;;;;;;;5.00;4.60;;;29.10;54.70;;;;;;5096288;28;20464;-69
2021/07/04 09:50:04;;;;;;;6.20;4.97;;;29.30;54.70;;;;;;5076105;28;20972;-69
2021/07/04 09:52:31;;;;;;;5.40;4.17;;;29.60;53.90;;;;;;5096380;28;20427;-69
2021/07/04 09:55:01;;;;;;;8.30;4.97;;;30.00;53.60;;;;;;5096355;28;20436;-69
2021/07/04 09:57:50;;;;;;;4.83;4.40;;;30.60;51.90;;;;;;5096276;28;20467;-69
2021/07/04 10:00:19;;;;;;;4.63;4.30;;;31.10;49.40;;;;;;5095733;28;20443;-69
2021/07/04 10:03:05;;;;;;;6.60;4.97;;;31.40;47.90;;;;;;5096157;28;20435;-67
2021/07/04 10:05:32;;;;;;;5.17;4.43;;;31.60;47.90;;;;;;5096233;28;20419;-70
2021/07/04 10:11:22;;;;;;;5.43;5.03;;;32.40;46.60;;;;;;5095682;28;20430;-68
2021/07/04 10:13:49;;;;;;;4.70;4.33;;;32.50;45.90;;;;;;5095311;28;20474;-68
2021/07/04 10:16:18;;;;;;;4.07;3.67;;;32.70;46.10;;;;;;5095707;28;20897;-68
2021/07/04 10:18:47;;;;;;;4.97;4.57;;;32.80;43.70;;;;;;5095514;28;20462;-68
2021/07/04 10:21:14;;;;;;;4.60;4.23;;;32.80;43.20;;;;;;5095502;28;20897;-68
2021/07/04 10:23:47;;;;;;;6.37;5.17;;;32.80;42.30;;;;;;5096247;28;20430;-68
2021/07/04 10:26:14;;;;;;;5.40;5.00;;;33.10;43.70;;;;;;5096131;28;20467;-68
2021/07/04 10:28:44;;;;;;;5.37;4.40;;;33.40;42.30;;;;;;5095493;28;20832;-68
2021/07/04 10:31:15;;;;;;;3.83;3.53;;;33.60;42.80;;;;;;5095733;28;20435;-68
2021/07/04 10:33:42;;;;;;;5.40;5.00;;;34.10;42.70;;;;;;5095313;28;20983;-68
2021/07/04 10:36:15;;;;;;;8.57;7.77;;;34.40;41.10;;;;;;5095521;28;20808;-69
2021/07/04 10:38:51;;;;;;;8.90;8.20;;;34.40;42.00;;;;;;5095392;28;20487;-69
2021/07/04 10:41:20;;;;;;;10.40;9.50;;;34.10;41.70;;;;;;5095625;28;20431;-68
2021/07/04 10:44:06;;;;;;;8.70;7.93;;;33.50;43.10;;;;;;5095421;28;20427;-68
2021/07/04 10:47:17;;;;;;;7.70;7.10;;;32.70;44.80;;;;;;5095410;28;20432;-68
2021/07/04 10:49:46;;;;;;;7.40;6.80;;;32.10;46.40;;;;;;5075057;28;20538;-69
2021/07/04 10:52:16;;;;;;;7.67;6.97;;;31.70;47.30;;;;;;5095502;28;20444;-68
2021/07/04 10:54:55;;;;;;;8.33;7.63;;;31.50;47.60;;;;;;5095188;28;20467;-68
2021/07/04 10:57:29;;;;;;;7.53;6.93;;;31.20;48.50;;;;;;5095169;28;20472;-69
2021/07/04 11:00:16;;;;;;;7.13;6.53;;;30.80;48.60;;;;;;5095197;28;20427;-68
2021/07/04 11:02:45;;;;;;;8.63;7.83;;;30.50;50.20;;;;;;5095067;28;20772;-68
2021/07/04 11:05:13;;;;;;;8.40;6.97;;;30.20;51.40;;;;;;5095141;28;20786;-68
2021/07/04 11:08:12;;;;;;;8.70;6.30;;;29.80;52.40;;;;;;5094683;28;20483;-68
2021/07/04 11:10:41;;;;;;;8.23;6.70;;;29.40;53.50;;;;;;5094820;28;20896;-68
2021/07/04 11:13:30;;;;;;;6.20;5.70;;;29.30;53.90;;;;;;5094795;28;20435;-68
2021/07/04 11:16:12;;;;;;;6.77;6.13;;;29.30;53.60;;;;;;5094790;28;20420;-68
2021/07/04 11:18:42;;;;;;;6.33;5.93;;;29.30;53.80;;;;;;5094754;28;20476;-68
2021/07/04 11:21:09;;;;;;;6.53;5.83;;;29.40;53.90;;;;;;5094609;28;20452;-68
2021/07/04 11:23:36;;;;;;;10.53;6.30;;;29.60;54.00;;;;;;5093883;28;20901;-68
2021/07/04 11:26:12;;;;;;;6.17;5.70;;;29.70;53.60;;;;;;5093879;28;20949;-68
2021/07/04 11:28:40;;;;;;;6.47;5.87;;;29.80;53.20;;;;;;5094523;28;20467;-68
2021/07/04 11:31:27;;;;;;;6.30;5.80;;;29.90;52.10;;;;;;5094495;28;20428;-69
2021/07/04 11:33:55;;;;;;;6.03;5.53;;;29.90;52.00;;;;;;5094383;28;20459;-69
2021/07/04 11:36:25;;;;;;;6.93;6.33;;;29.90;52.40;;;;;;5094435;28;20435;-69
2021/07/04 11:38:54;;;;;;;6.47;5.90;;;29.70;53.20;;;;;;5094252;28;20537;-68
2021/07/04 11:41:23;;;;;;;6.80;6.13;;;29.40;54.40;;;;;;5093952;28;20894;-67
2021/07/04 11:43:51;;;;;;;8.00;7.20;;;29.10;54.90;;;;;;5094251;28;20444;-67
2021/07/04 11:46:19;;;;;;;7.20;6.60;;;28.90;55.80;;;;;;5093907;28;20443;-67
2021/07/04 11:48:54;;;;;;;5.90;5.50;;;28.60;56.60;;;;;;5094059;28;20468;-67
2021/07/04 11:51:27;;;;;;;8.70;6.30;;;28.40;57.20;;;;;;5094186;28;20445;-68
2021/07/04 11:53:55;;;;;;;6.70;6.10;;;28.10;57.60;;;;;;5094089;28;20464;-71
2021/07/04 11:56:22;;;;;;;6.57;6.07;;;27.90;58.40;;;;;;5094140;28;20440;-68
2021/07/04 11:58:49;;;;;;;7.17;6.57;;;27.70;59.10;;;;;;5093968;28;20463;-72
2021/07/04 12:01:18;;;;;;;6.77;6.30;;;27.40;59.90;;;;;;5094040;28;20823;-72
2021/07/04 12:03:48;;;;;;;9.50;7.07;;;27.20;61.50;;;;;;5093860;28;20531;-68
2021/07/04 12:06:16;;;;;;;11.30;8.97;;;27.00;62.90;;;;;;5094057;28;20458;-69
2021/07/04 12:08:59;;;;;;;9.23;8.10;;;26.70;64.30;;;;;;5093488;28;20912;-68
2021/07/04 12:11:50;;;;;;;13.03;8.47;;;26.40;68.30;;;;;;5094355;28;20432;-68
2021/07/04 12:14:29;;;;;;;13.07;11.70;;;25.90;70.20;;;;;;5093834;28;20472;-67
2021/07/04 12:16:58;;;;;;;9.90;7.40;;;25.30;70.20;;;;;;5093712;28;20556;-66
2021/07/04 12:19:26;;;;;;;8.13;4.43;;;24.60;74.10;;;;;;5093736;28;20439;-66
2021/07/04 12:21:55;;;;;;;5.00;2.53;;;24.10;72.30;;;;;;5093674;28;20492;-66
2021/07/04 12:24:30;;;;;;;4.27;2.00;;;23.30;67.20;;;;;;5093140;28;20937;-65
2021/07/04 12:26:57;;;;;;;5.53;3.75;;;22.40;65.60;;;;;;5093224;28;20440;-66
2021/07/04 12:29:24;;;;;;;8.93;3.60;;;21.70;77.30;;;;;;5093636;28;20190;-66
2021/07/04 12:32:00;;;;;;;5.53;2.23;;;21.90;83.40;;;;;;5093579;28;20420;-66
2021/07/04 12:34:27;;;;;;;6.33;3.00;;;22.20;82.20;;;;;;5093497;28;20464;-67
2021/07/04 12:36:55;;;;;;;8.00;1.80;;;22.30;80.10;;;;;;5098821;28;20781;-66
2021/07/04 12:39:29;;;;;;;4.37;1.87;;;22.50;78.30;;;;;;5100215;28;20443;-68
2021/07/04 12:41:56;;;;;;;3.73;2.00;;;22.50;79.70;;;;;;5099550;28;20435;-66
2021/07/04 12:45:28;;;;;;;3.03;1.20;;;22.70;82.90;;;;;;5100158;28;20443;-66
2021/07/04 12:48:00;;;;;;;1.60;1.40;;;22.90;80.90;;;;;;5099970;28;20463;-66
2021/07/04 12:50:41;;;;;;;1.93;1.00;;;22.90;79.80;;;;;;5099943;28;20432;-66